Time;durP1;ratioP1;P1;durP2;ratioP2;P2;SDS_P1;SDS_P2;PMS_P1;PMS_P2;Temp;Humidity;BMP_temperature;BMP_pressure;BME280_temperature;BME280_humidity;BME280_pressure;Samples;Min_cycle;Max_cycle;Signal;HPM_P1;HPM_P2
2024/04/09 00:00:51;;;;;;;12.40;1.95;;;;;;;7.35;100.00;99793.00;5465265;26;20469;-74
2024/04/09 00:03:17;;;;;;;8.15;1.70;;;;;;;7.33;100.00;99792.44;5435197;26;20008;-73
2024/04/09 00:05:43;;;;;;;9.27;1.60;;;;;;;7.35;100.00;99800.44;5441532;26;20419;-74
2024/04/09 00:08:10;;;;;;;10.52;1.73;;;;;;;7.31;100.00;99800.19;5442335;26;20055;-74
2024/04/09 00:10:36;;;;;;;12.48;1.80;;;;;;;7.27;100.00;99807.41;5486119;26;20001;-73
2024/04/09 00:13:04;;;;;;;7.75;1.75;;;;;;;7.30;100.00;99812.38;5496379;26;20009;-73
2024/04/09 00:15:30;;;;;;;9.68;1.92;;;;;;;7.26;100.00;99807.69;5473198;26;20372;-73
2024/04/09 00:17:56;;;;;;;9.75;1.90;;;;;;;7.27;100.00;99801.03;5495593;26;20006;-74
2024/04/09 00:20:23;;;;;;;14.70;2.78;;;;;;;7.21;100.00;99811.31;5436168;26;20073;-74
2024/04/09 00:22:55;;;;;;;14.52;1.80;;;;;;;7.20;100.00;99815.19;5464919;26;20009;-74
2024/04/09 00:25:24;;;;;;;10.77;1.92;;;;;;;7.19;100.00;99810.81;5467300;26;20399;-73
2024/04/09 00:27:53;;;;;;;12.98;2.22;;;;;;;7.16;100.00;99814.97;5443676;26;20006;-73
2024/04/09 00:30:19;;;;;;;11.15;2.28;;;;;;;7.16;100.00;99814.97;5478058;26;20458;-73
2024/04/09 00:32:45;;;;;;;8.63;2.13;;;;;;;7.19;100.00;99821.84;5492295;26;20804;-73
2024/04/09 00:35:11;;;;;;;10.00;1.73;;;;;;;7.15;100.00;99827.09;5462589;26;20085;-73
2024/04/09 00:37:39;;;;;;;9.93;1.65;;;;;;;7.16;100.00;99830.72;5464312;26;20021;-73
2024/04/09 00:40:09;;;;;;;11.57;1.98;;;;;;;7.09;100.00;99827.44;5496609;26;20015;-73
2024/04/09 00:42:37;;;;;;;12.18;1.77;;;;;;;7.08;100.00;99834.09;5467432;26;20001;-73
2024/04/09 00:45:06;;;;;;;10.00;1.65;;;;;;;7.09;100.00;99844.81;5496460;26;20006;-73
2024/04/09 00:47:34;;;;;;;9.27;1.75;;;;;;;7.04;100.00;99847.63;5466115;26;20077;-73
2024/04/09 00:50:05;;;;;;;9.70;2.13;;;;;;;7.01;100.00;99841.84;5496410;26;20030;-73
2024/04/09 00:52:31;;;;;;;9.98;1.73;;;;;;;7.01;100.00;99862.00;5496238;26;20009;-73
2024/04/09 00:54:58;;;;;;;8.63;1.55;;;;;;;6.98;100.00;99850.72;5465184;26;20001;-73
2024/04/09 00:57:23;;;;;;;10.63;2.47;;;;;;;6.94;100.00;99865.09;5480196;26;20035;-73
2024/04/09 00:59:49;;;;;;;8.07;1.95;;;;;;;6.94;100.00;99864.28;5449754;26;20008;-73
2024/04/09 01:02:15;;;;;;;11.73;1.90;;;;;;;6.94;100.00;99870.59;5494259;26;20001;-73
2024/04/09 01:04:41;;;;;;;9.23;1.38;;;;;;;6.90;100.00;99879.75;5487852;26;20002;-73
2024/04/09 01:07:07;;;;;;;8.57;2.10;;;;;;;6.88;100.00;99873.66;5428539;26;20017;-73
2024/04/09 01:09:32;;;;;;;12.63;1.80;;;;;;;6.87;100.00;99877.56;5478444;26;20001;-73
2024/04/09 01:11:57;;;;;;;8.18;1.17;;;;;;;6.83;100.00;99874.53;5458254;26;20020;-74
2024/04/09 01:14:23;;;;;;;9.32;1.50;;;;;;;6.80;100.00;99883.41;5495201;26;20106;-73
2024/04/09 01:16:48;;;;;;;8.52;1.60;;;;;;;6.80;100.00;99888.91;5492304;25;20001;-73
2024/04/09 01:19:14;;;;;;;8.70;2.03;;;;;;;6.79;100.00;99887.25;5494994;26;20002;-73
2024/04/09 01:21:39;;;;;;;10.48;1.50;;;;;;;6.81;100.00;99893.31;5493851;26;20017;-73
2024/04/09 01:24:05;;;;;;;8.68;1.08;;;;;;;6.73;100.00;99893.91;5527202;26;20052;-73
2024/04/09 01:26:30;;;;;;;8.68;1.50;;;;;;;6.72;100.00;99895.03;5488659;26;20010;-73
2024/04/09 01:28:56;;;;;;;12.13;1.73;;;;;;;6.73;100.00;99902.19;5480127;26;20435;-73
2024/04/09 01:31:23;;;;;;;7.85;1.30;;;;;;;6.68;100.00;99905.78;5522992;25;20098;-73
2024/04/09 01:33:48;;;;;;;12.90;1.33;;;;;;;6.70;100.00;99911.03;5437970;26;20017;-73
2024/04/09 01:36:14;;;;;;;9.43;1.95;;;;;;;6.64;100.00;99914.94;5459677;26;20384;-73
2024/04/09 01:38:39;;;;;;;11.23;1.80;;;;;;;6.63;100.00;99916.03;5525696;26;20006;-73
2024/04/09 01:41:05;;;;;;;6.95;1.30;;;;;;;6.62;100.00;99917.13;5461613;26;20001;-73
2024/04/09 01:43:31;;;;;;;11.70;1.73;;;;;;;6.59;100.00;99914.94;5495051;26;20005;-73
2024/04/09 01:45:56;;;;;;;8.50;1.77;;;;;;;6.54;100.00;99920.47;5522521;26;20017;-73
2024/04/09 01:48:22;;;;;;;12.05;1.58;;;;;;;6.55;100.00;99920.22;5525601;26;20012;-73
2024/04/09 01:50:47;;;;;;;9.32;1.45;;;;;;;6.55;100.00;99924.91;5523289;26;20016;-73
2024/04/09 01:53:13;;;;;;;5.85;1.70;;;;;;;6.57;100.00;99933.72;5464268;26;20019;-73
2024/04/09 01:55:38;;;;;;;6.25;1.48;;;;;;;6.54;100.00;99932.34;5461853;26;20057;-73
2024/04/09 01:58:04;;;;;;;12.55;1.80;;;;;;;6.56;100.00;99930.13;5439058;26;20066;-73
2024/04/09 02:00:30;;;;;;;12.15;1.90;;;;;;;6.53;100.00;99933.44;5483952;26;20013;-73
2024/04/09 02:02:56;;;;;;;10.82;1.50;;;;;;;6.52;100.00;99939.25;5494453;26;20009;-73
2024/04/09 02:05:21;;;;;;;5.53;1.08;;;;;;;6.49;100.00;99938.72;5444462;26;20034;-73
2024/04/09 02:07:47;;;;;;;9.43;1.40;;;;;;;6.45;100.00;99932.09;5494799;26;20003;-73
2024/04/09 02:10:13;;;;;;;8.13;1.60;;;;;;;6.44;100.00;99947.00;5480582;26;20005;-73
2024/04/09 02:12:39;;;;;;;8.82;1.30;;;;;;;6.42;100.00;99948.38;5432962;26;20005;-73
2024/04/09 02:15:06;;;;;;;7.00;1.15;;;;;;;6.48;100.00;99948.06;5493451;26;20002;-73
2024/04/09 02:17:31;;;;;;;9.02;1.27;;;;;;;6.45;100.00;99953.34;5494646;26;20009;-73
2024/04/09 02:19:56;;;;;;;7.88;1.25;;;;;;;6.43;100.00;99952.78;5490916;26;20091;-73
2024/04/09 02:22:22;;;;;;;10.30;1.23;;;;;;;6.42;100.00;99962.19;5433608;26;20442;-73
2024/04/09 02:24:48;;;;;;;10.05;1.23;;;;;;;6.36;100.00;99955.84;5492433;26;20002;-73
2024/04/09 02:27:13;;;;;;;7.47;1.08;;;;;;;6.35;100.00;99967.16;5477917;26;20465;-73
2024/04/09 02:29:39;;;;;;;10.35;1.20;;;;;;;6.33;100.00;99969.38;5489383;26;20046;-73
2024/04/09 02:32:05;;;;;;;4.72;1.35;;;;;;;6.29;100.00;99971.84;5462353;26;20419;-73
2024/04/09 02:34:35;;;;;;;7.68;1.35;;;;;;;6.29;100.00;99969.09;5518841;26;20006;-73
2024/04/09 02:37:04;;;;;;;14.85;2.05;;;;;;;6.30;100.00;99981.78;5495611;26;20034;-73
2024/04/09 02:39:31;;;;;;;9.43;1.52;;;;;;;6.28;100.00;99985.94;5463247;26;20450;-73
2024/04/09 02:41:57;;;;;;;12.02;1.75;;;;;;;6.23;100.00;99984.00;5494767;26;20020;-73
2024/04/09 02:44:22;;;;;;;11.05;1.55;;;;;;;6.17;100.00;99987.88;5469413;26;19997;-73
2024/04/09 02:46:49;;;;;;;10.70;1.92;;;;;;;6.17;100.00;99983.19;5494515;26;20521;-73
2024/04/09 02:49:16;;;;;;;11.98;1.88;;;;;;;6.16;100.00;99989.81;5462164;26;20050;-73
2024/04/09 02:51:41;;;;;;;11.68;1.67;;;;;;;6.13;100.00;99998.63;5493723;26;20407;-73
2024/04/09 02:54:08;;;;;;;7.45;1.63;;;;;;;6.13;100.00;99998.63;5523408;26;20065;-73
2024/04/09 02:56:34;;;;;;;11.95;1.63;;;;;;;6.09;100.00;100010.47;5524228;26;20350;-73
2024/04/09 02:59:00;;;;;;;7.97;1.88;;;;;;;6.09;100.00;100002.22;5437133;26;20026;-73
2024/04/09 03:01:25;;;;;;;7.18;2.00;;;;;;;6.08;100.00;100003.31;5463262;26;20757;-73
2024/04/09 03:03:51;;;;;;;9.27;1.67;;;;;;;6.05;100.00;100004.72;5486054;26;20030;-73
2024/04/09 03:06:16;;;;;;;9.50;1.38;;;;;;;6.04;100.00;100008.53;5418049;26;20470;-73
2024/04/09 03:08:42;;;;;;;11.88;1.75;;;;;;;6.04;100.00;100014.06;5503229;26;19998;-73
2024/04/09 03:11:12;;;;;;;10.50;1.33;;;;;;;6.02;100.00;100030.91;5489221;26;20005;-73
2024/04/09 03:13:37;;;;;;;7.18;1.10;;;;;;;5.96;100.00;100023.72;5461578;26;20462;-73
2024/04/09 03:16:11;;;;;;;9.75;1.38;;;;;;;5.94;100.00;100031.44;5493253;26;20002;-73
2024/04/09 03:18:36;;;;;;;7.25;1.23;;;;;;;5.94;100.00;100036.13;5492416;26;20053;-73
2024/04/09 03:21:02;;;;;;;10.23;1.40;;;;;;;5.95;100.00;100035.03;5522677;26;20639;-73
2024/04/09 03:23:27;;;;;;;13.07;1.77;;;;;;;5.90;100.00;100035.81;5490695;26;20016;-73
2024/04/09 03:25:53;;;;;;;6.85;1.50;;;;;;;5.93;100.00;100039.94;5492129;26;20585;-73
2024/04/09 03:28:18;;;;;;;10.40;1.52;;;;;;;5.89;100.00;100039.66;5472149;26;20013;-73
2024/04/09 03:30:44;;;;;;;12.38;2.00;;;;;;;5.89;100.00;100047.94;5489510;26;20030;-73
2024/04/09 03:33:09;;;;;;;8.38;1.50;;;;;;;5.85;100.00;100046.84;5521661;26;20020;-73
2024/04/09 03:35:35;;;;;;;13.82;2.38;;;;;;;5.81;100.00;100040.22;5519870;26;20013;-73
2024/04/09 03:38:00;;;;;;;9.05;1.40;;;;;;;5.85;100.00;100046.00;5493499;26;20005;-73
2024/04/09 03:40:26;;;;;;;11.63;1.65;;;;;;;5.80;100.00;100044.91;5496047;26;20471;-73
2024/04/09 03:42:52;;;;;;;11.90;1.55;;;;;;;5.81;100.00;100048.47;5494541;26;20005;-73
2024/04/09 03:45:17;;;;;;;8.35;1.58;;;;;;;5.80;100.00;100058.69;5496570;26;20076;-73
2024/04/09 03:47:43;;;;;;;7.28;1.27;;;;;;;5.82;100.00;100056.47;5443504;26;20008;-73
2024/04/09 03:50:08;;;;;;;8.70;1.55;;;;;;;5.79;100.00;100058.94;5528874;25;20002;-73
2024/04/09 03:52:34;;;;;;;9.45;1.20;;;;;;;5.76;100.00;100057.56;5463377;26;20870;-73
2024/04/09 03:54:59;;;;;;;10.25;2.17;;;;;;;5.78;100.00;100065.56;5526019;26;20001;-73
2024/04/09 03:57:25;;;;;;;11.02;1.42;;;;;;;5.79;100.00;100064.44;5448671;26;20010;-73
2024/04/09 03:59:50;;;;;;;11.88;1.30;;;;;;;5.79;100.00;100067.22;5466495;26;20016;-73
2024/04/09 04:02:16;;;;;;;8.02;1.45;;;;;;;5.76;100.00;100068.56;5464786;26;20020;-73
2024/04/09 04:04:41;;;;;;;9.82;1.55;;;;;;;5.67;100.00;100080.41;5478758;26;20006;-73
2024/04/09 04:07:10;;;;;;;13.80;2.47;;;;;;;5.66;100.00;100076.03;5429764;26;20081;-73
2024/04/09 04:09:36;;;;;;;10.25;1.50;;;;;;;5.62;100.00;100083.16;5508413;26;20013;-73
2024/04/09 04:12:02;;;;;;;8.30;1.52;;;;;;;5.61;100.00;100076.81;5490437;26;20017;-73
2024/04/09 04:14:27;;;;;;;8.52;1.05;;;;;;;5.62;100.00;100088.66;5466235;26;20015;-73
2024/04/09 04:16:53;;;;;;;10.88;1.10;;;;;;;5.63;100.00;100091.16;5493916;26;20026;-73
2024/04/09 04:19:18;;;;;;;5.10;1.05;;;;;;;5.60;100.00;100084.28;5466483;26;20002;-73
2024/04/09 04:21:44;;;;;;;11.80;1.48;;;;;;;5.57;100.00;100086.72;5494808;26;20459;-73
2024/04/09 04:24:09;;;;;;;9.50;1.80;;;;;;;5.57;100.00;100097.75;5495649;26;20001;-73
2024/04/09 04:26:35;;;;;;;11.85;1.30;;;;;;;5.55;100.00;100095.28;5459435;26;20051;-73
2024/04/09 04:29:01;;;;;;;10.65;1.85;;;;;;;5.51;100.00;100096.91;5421592;26;20013;-73
2024/04/09 04:31:27;;;;;;;9.50;1.33;;;;;;;5.53;100.00;100111.22;5463250;26;20025;-73
2024/04/09 04:33:53;;;;;;;7.22;1.55;;;;;;;5.52;100.00;100098.56;5462895;26;20005;-73
2024/04/09 04:36:19;;;;;;;10.30;1.45;;;;;;;5.49;100.00;100101.88;5463939;26;20446;-73
2024/04/09 04:38:46;;;;;;;11.32;1.92;;;;;;;5.47;100.00;100114.25;5526114;26;20070;-73
2024/04/09 04:41:11;;;;;;;10.13;2.08;;;;;;;5.50;100.00;100113.72;5526065;26;19997;-73
2024/04/09 04:43:38;;;;;;;8.00;1.70;;;;;;;5.49;100.00;100123.03;5495080;26;20001;-73
2024/04/09 04:46:09;;;;;;;13.65;1.60;;;;;;;5.46;100.00;100129.94;5465002;26;20016;-73
2024/04/09 04:48:36;;;;;;;8.68;1.63;;;;;;;5.42;100.00;100131.56;5466798;26;20010;-73
2024/04/09 04:51:01;;;;;;;11.02;1.92;;;;;;;5.42;100.00;100139.00;5435536;26;20005;-73
2024/04/09 04:53:26;;;;;;;9.82;1.10;;;;;;;5.42;100.00;100139.84;5493315;26;20050;-73
2024/04/09 04:55:52;;;;;;;9.25;1.80;;;;;;;5.41;100.00;100142.88;5495387;26;20012;-73
2024/04/09 04:58:21;;;;;;;8.05;1.33;;;;;;;5.39;100.00;100151.38;5442399;26;20095;-73
2024/04/09 05:00:46;;;;;;;10.45;1.48;;;;;;;5.41;100.00;100149.19;5464265;26;20006;-73
2024/04/09 05:03:12;;;;;;;10.60;2.22;;;;;;;5.32;100.00;100159.06;5495329;26;20001;-73
2024/04/09 05:05:37;;;;;;;10.77;1.40;;;;;;;5.28;100.00;100166.22;5444298;26;20001;-73
2024/04/09 05:08:03;;;;;;;10.40;1.30;;;;;;;5.24;100.00;100165.09;5509643;26;20053;-73
2024/04/09 05:10:28;;;;;;;9.18;1.40;;;;;;;5.26;100.00;100182.16;5459578;26;20002;-73
2024/04/09 05:12:54;;;;;;;9.18;1.35;;;;;;;5.25;100.00;100180.50;5495198;26;20008;-73
2024/04/09 05:15:20;;;;;;;6.90;1.50;;;;;;;5.22;100.00;100183.81;5471075;26;20331;-73
2024/04/09 05:17:46;;;;;;;12.40;1.73;;;;;;;5.22;100.00;100190.13;5494206;26;20014;-73
2024/04/09 05:20:14;;;;;;;8.27;1.33;;;;;;;5.18;100.00;100188.16;5479547;26;20003;-73
2024/04/09 05:22:40;;;;;;;8.40;1.95;;;;;;;5.20;100.00;100197.00;5470367;26;20565;-73
2024/04/09 05:25:06;;;;;;;9.88;1.85;;;;;;;5.16;100.00;100193.94;5494753;26;20022;-73
2024/04/09 05:27:32;;;;;;;8.50;2.00;;;;;;;5.21;100.00;100198.63;5445317;26;20012;-73
2024/04/09 05:29:58;;;;;;;7.65;1.20;;;;;;;5.17;100.00;100203.03;5472131;26;20001;-73
2024/04/09 05:32:24;;;;;;;7.47;1.60;;;;;;;5.16;100.00;100202.22;5492044;26;20016;-73
2024/04/09 05:34:50;;;;;;;14.75;1.80;;;;;;;5.14;100.00;100207.97;5462835;26;20341;-73
2024/04/09 05:37:15;;;;;;;9.75;1.40;;;;;;;5.12;100.00;100207.41;5491976;26;20012;-73
2024/04/09 05:39:42;;;;;;;13.85;2.15;;;;;;;5.18;100.00;100210.19;5494625;26;20009;-73
2024/04/09 05:42:09;;;;;;;16.42;1.80;;;;;;;5.11;100.00;100215.94;5493663;26;20001;-73
2024/04/09 05:44:35;;;;;;;13.27;1.92;;;;;;;5.14;100.00;100218.16;5464469;26;20038;-73
2024/04/09 05:47:00;;;;;;;14.65;1.90;;;;;;;5.15;100.00;100217.91;5466467;26;20393;-73
2024/04/09 05:49:26;;;;;;;12.52;2.30;;;;;;;5.16;100.00;100227.00;5494570;26;19998;-73
2024/04/09 05:51:51;;;;;;;13.57;2.10;;;;;;;5.21;100.00;100226.16;5492840;26;20374;-73
2024/04/09 05:54:18;;;;;;;15.05;1.83;;;;;;;5.21;100.00;100226.16;5525250;26;20013;-73
2024/04/09 05:56:46;;;;;;;7.57;1.40;;;;;;;5.22;100.00;100234.19;5491413;26;20362;-73
2024/04/09 05:59:11;;;;;;;16.27;1.80;;;;;;;5.29;100.00;100233.94;5469376;26;20001;-73
2024/04/09 06:01:36;;;;;;;12.25;2.17;;;;;;;5.33;100.00;100251.59;5493935;26;20033;-73
2024/04/09 06:04:02;;;;;;;11.85;1.88;;;;;;;5.38;100.00;100243.38;5455031;26;20395;-73
2024/04/09 06:06:27;;;;;;;9.70;2.03;;;;;;;5.43;100.00;100251.66;5421932;26;20010;-73
2024/04/09 06:08:53;;;;;;;12.23;2.20;;;;;;;5.46;100.00;100259.41;5505757;26;20042;-73
2024/04/09 06:11:18;;;;;;;13.75;1.92;;;;;;;5.51;100.00;100253.91;5490861;26;20452;-73
2024/04/09 06:13:44;;;;;;;12.02;2.13;;;;;;;5.57;100.00;100269.38;5449826;26;19999;-73
2024/04/09 06:16:09;;;;;;;11.27;1.90;;;;;;;5.68;100.00;100274.94;5499009;26;20349;-73
2024/04/09 06:18:36;;;;;;;11.57;2.10;;;;;;;5.74;100.00;100284.88;5463039;26;20016;-73
2024/04/09 06:21:01;;;;;;;8.15;2.10;;;;;;;5.82;100.00;100289.88;5464125;26;20071;-74
2024/04/09 06:23:27;;;;;;;15.30;1.90;;;;;;;5.91;100.00;100288.28;5492638;26;20022;-73
2024/04/09 06:25:54;;;;;;;10.98;1.90;;;;;;;6.02;100.00;100297.47;5494208;26;20033;-74
2024/04/09 06:28:20;;;;;;;14.10;2.63;;;;;;;6.13;100.00;100295.56;5473963;26;20020;-73
2024/04/09 06:30:45;;;;;;;10.95;1.75;;;;;;;6.25;100.00;100290.66;5489742;26;20005;-73
2024/04/09 06:33:11;;;;;;;18.25;2.35;;;;;;;6.37;100.00;100295.94;5492091;26;19997;-73
2024/04/09 06:35:37;;;;;;;14.98;2.65;;;;;;;6.48;100.00;100294.84;5519108;26;20016;-73
2024/04/09 06:38:03;;;;;;;12.63;1.95;;;;;;;6.60;100.00;100300.97;5491360;26;20041;-73
2024/04/09 06:40:30;;;;;;;15.43;2.95;;;;;;;6.74;100.00;100319.75;5460964;26;20002;-73
2024/04/09 06:42:56;;;;;;;18.58;2.35;;;;;;;6.85;100.00;100321.41;5419319;26;20025;-73
2024/04/09 06:45:22;;;;;;;9.60;1.92;;;;;;;6.99;100.00;100324.47;5520986;26;20013;-73
2024/04/09 06:47:47;;;;;;;10.25;2.13;;;;;;;7.13;100.00;100333.88;5493350;26;20002;-73
2024/04/09 06:50:15;;;;;;;14.20;2.83;;;;;;;7.26;100.00;100333.31;5521036;26;20005;-73
2024/04/09 06:52:41;;;;;;;16.40;2.17;;;;;;;7.41;100.00;100339.94;5475474;26;20022;-73
2024/04/09 06:55:07;;;;;;;12.13;1.52;;;;;;;7.57;100.00;100360.94;5439413;26;20001;-73
2024/04/09 06:57:32;;;;;;;11.50;1.75;;;;;;;7.70;100.00;100352.09;5444071;26;20046;-73
2024/04/09 06:59:58;;;;;;;16.55;1.95;;;;;;;7.84;100.00;100355.09;5437300;26;20050;-73
2024/04/09 07:02:23;;;;;;;18.55;2.40;;;;;;;7.99;100.00;100360.59;5492302;26;20042;-73
2024/04/09 07:04:49;;;;;;;10.20;2.03;;;;;;;8.15;100.00;100353.06;5440550;26;20009;-73
2024/04/09 07:07:14;;;;;;;8.40;1.50;;;;;;;8.28;100.00;100358.00;5457218;26;20017;-73
2024/04/09 07:09:40;;;;;;;14.52;1.90;;;;;;;8.45;100.00;100354.09;5444994;26;20001;-73
2024/04/09 07:12:07;;;;;;;10.75;1.80;;;;;;;8.59;100.00;100346.03;5493696;26;20005;-73
2024/04/09 07:14:32;;;;;;;9.32;1.98;;;;;;;8.76;100.00;100351.19;5497215;26;20001;-73
2024/04/09 07:16:57;;;;;;;12.10;2.10;;;;;;;8.92;100.00;100363.81;5526504;26;20019;-73
2024/04/09 07:19:23;;;;;;;12.88;1.90;;;;;;;9.07;100.00;100369.25;5527810;26;20367;-73
2024/04/09 07:21:48;;;;;;;10.13;1.90;;;;;;;9.23;100.00;100366.38;5527312;26;20017;-73
2024/04/09 07:24:14;;;;;;;23.27;2.90;;;;;;;9.39;100.00;100379.84;5466146;26;20001;-73
2024/04/09 07:26:40;;;;;;;12.98;1.80;;;;;;;9.54;100.00;100365.00;5519010;26;20447;-73
2024/04/09 07:29:05;;;;;;;10.30;1.67;;;;;;;9.69;100.00;100369.56;5435737;26;20007;-73
2024/04/09 07:31:31;;;;;;;15.77;2.00;;;;;;;9.87;100.00;100375.53;5435354;26;20029;-73
2024/04/09 07:33:56;;;;;;;8.90;2.20;;;;;;;10.02;100.00;100392.84;5427653;26;20007;-73
2024/04/09 07:36:22;;;;;;;14.98;2.25;;;;;;;10.18;100.00;100387.97;5526841;26;20029;-73
2024/04/09 07:38:48;;;;;;;11.18;2.15;;;;;;;10.32;100.00;100385.34;5526171;26;20006;-73
2024/04/09 07:41:13;;;;;;;13.57;2.13;;;;;;;10.52;100.00;100400.91;5473959;26;20001;-73
2024/04/09 07:43:39;;;;;;;13.52;1.92;;;;;;;10.66;100.00;100401.03;5464759;26;20072;-73
2024/04/09 07:46:04;;;;;;;14.43;2.25;;;;;;;10.80;100.00;100406.69;5514268;26;20041;-74
2024/04/09 07:48:30;;;;;;;16.10;2.33;;;;;;;10.96;100.00;100402.56;5525490;26;20460;-74
2024/04/09 07:50:56;;;;;;;16.30;1.67;;;;;;;11.12;100.00;100422.66;5527126;26;20342;-74
2024/04/09 07:53:22;;;;;;;13.98;2.10;;;;;;;11.29;100.00;100417.38;5463825;26;20013;-73
2024/04/09 07:55:47;;;;;;;12.65;2.10;;;;;;;11.46;100.00;100436.31;5484379;26;20009;-73
2024/04/09 07:58:13;;;;;;;11.43;1.77;;;;;;;11.59;100.00;100434.72;5455446;26;20010;-73
2024/04/09 08:00:39;;;;;;;13.27;1.85;;;;;;;11.74;100.00;100426.13;5459262;26;19997;-73
2024/04/09 08:03:04;;;;;;;8.18;1.70;;;;;;;11.89;100.00;100443.72;5437690;26;19998;-73
2024/04/09 08:05:30;;;;;;;13.82;2.10;;;;;;;11.98;100.00;100453.84;5452604;26;20009;-73
2024/04/09 08:07:55;;;;;;;8.82;1.38;;;;;;;12.14;100.00;100448.81;5419276;26;20013;-73
2024/04/09 08:10:21;;;;;;;9.23;1.80;;;;;;;12.26;100.00;100460.31;5425597;26;20713;-73
2024/04/09 08:12:49;;;;;;;12.82;1.83;;;;;;;12.37;100.00;100477.66;5473046;26;20009;-74
2024/04/09 08:15:18;;;;;;;13.25;1.67;;;;;;;12.50;100.00;100473.22;5513790;26;20443;-74
2024/04/09 08:17:44;;;;;;;11.35;1.38;;;;;;;12.65;100.00;100470.16;5500761;26;20001;-74
2024/04/09 08:20:10;;;;;;;10.68;1.70;;;;;;;12.80;100.00;100482.94;5464464;26;20030;-73
2024/04/09 08:22:39;;;;;;;14.23;2.10;;;;;;;12.90;100.00;100490.28;5464291;26;20450;-74
2024/04/09 08:25:05;;;;;;;9.63;2.03;;;;;;;13.05;100.00;100503.06;5495008;26;20012;-73
2024/04/09 08:27:38;;;;;;;8.13;1.40;;;;;;;13.14;100.00;100499.22;5445298;26;20467;-73
2024/04/09 08:30:07;;;;;;;7.68;1.73;;;;;;;13.29;100.00;100502.84;5453664;26;20073;-73
2024/04/09 08:32:33;;;;;;;8.63;1.65;;;;;;;13.43;100.00;100517.63;5490626;26;20005;-74
2024/04/09 08:34:58;;;;;;;11.38;1.73;;;;;;;13.57;100.00;100528.75;5525076;25;20008;-74
2024/04/09 08:37:24;;;;;;;9.15;2.17;;;;;;;13.69;100.00;100520.66;5491252;26;20017;-74
2024/04/09 08:39:56;;;;;;;15.82;1.42;;;;;;;13.89;100.00;100526.88;5464729;26;20006;-74
2024/04/09 08:42:22;;;;;;;15.73;1.70;;;;;;;13.99;100.00;100538.63;5524199;26;20002;-74
2024/04/09 08:44:49;;;;;;;12.07;2.58;;;;;;;14.11;100.00;100540.88;5481447;26;20362;-74
2024/04/09 08:47:24;;;;;;;15.50;2.00;;;;;;;14.22;100.00;100539.47;5481565;26;20032;-74
2024/04/09 08:49:50;;;;;;;12.25;1.92;;;;;;;14.35;100.00;100550.88;5450634;26;20006;-74
2024/04/09 08:52:20;;;;;;;11.43;1.60;;;;;;;14.42;100.00;100552.09;5489747;26;20005;-74
2024/04/09 08:54:45;;;;;;;13.73;1.75;;;;;;;14.49;100.00;100552.47;5448889;26;20450;-74
2024/04/09 08:57:15;;;;;;;9.45;1.77;;;;;;;14.61;100.00;100559.47;5484749;26;20059;-74
2024/04/09 08:59:40;;;;;;;9.13;1.65;;;;;;;14.70;100.00;100561.16;5425606;26;20003;-74
2024/04/09 09:02:10;;;;;;;14.95;1.70;;;;;;;14.80;100.00;100574.03;5465984;26;20012;-74
2024/04/09 09:04:36;;;;;;;12.05;2.20;;;;;;;14.94;100.00;100568.34;5431133;26;20030;-74
2024/04/09 09:07:06;;;;;;;11.88;1.90;;;;;;;15.05;100.00;100568.91;5424985;26;20022;-74
2024/04/09 09:09:31;;;;;;;9.50;1.75;;;;;;;15.15;100.00;100583.41;5424325;26;20018;-74
2024/04/09 09:12:02;;;;;;;10.63;2.05;;;;;;;15.18;100.00;100576.34;5435883;26;20008;-75
2024/04/09 09:14:27;;;;;;;10.43;1.38;;;;;;;15.29;100.00;100588.06;5448410;26;20010;-74
2024/04/09 09:17:00;;;;;;;12.45;2.35;;;;;;;15.38;100.00;100594.53;5434478;26;20309;-73
2024/04/09 09:19:30;;;;;;;12.02;1.52;;;;;;;15.48;99.70;100602.59;5443063;26;20454;-74
2024/04/09 09:21:56;;;;;;;13.10;1.98;;;;;;;15.61;100.00;100598.03;5452441;26;20014;-73
2024/04/09 09:24:21;;;;;;;12.55;1.88;;;;;;;15.72;99.20;100609.78;5449250;26;20005;-74
2024/04/09 09:26:48;;;;;;;8.68;1.83;;;;;;;15.81;97.17;100621.81;5472381;26;20101;-73
2024/04/09 09:29:14;;;;;;;12.35;2.10;;;;;;;15.90;95.76;100622.66;5423684;26;20507;-74
2024/04/09 09:31:39;;;;;;;9.02;1.42;;;;;;;16.01;91.16;100634.38;5506478;25;20003;-74
2024/04/09 09:34:07;;;;;;;9.98;1.60;;;;;;;16.10;94.35;100618.38;5437659;26;19997;-74
2024/04/09 09:36:33;;;;;;;9.57;1.35;;;;;;;16.26;95.88;100624.34;5493156;26;20715;-74
2024/04/09 09:38:59;;;;;;;10.48;1.60;;;;;;;16.35;86.97;100632.75;5489416;26;20051;-74
2024/04/09 09:41:25;;;;;;;13.02;1.83;;;;;;;16.42;85.22;100633.09;5494513;26;20072;-74
2024/04/09 09:43:50;;;;;;;9.75;1.88;;;;;;;16.44;81.59;100626.00;5506800;26;20015;-74
2024/04/09 09:46:16;;;;;;;9.02;1.67;;;;;;;16.60;86.42;100636.69;5468068;26;20043;-74
2024/04/09 09:48:42;;;;;;;9.55;1.20;;;;;;;16.71;84.17;100636.00;5395986;26;19999;-73
2024/04/09 09:51:07;;;;;;;8.07;1.17;;;;;;;16.82;82.77;100635.69;5416889;26;20033;-73
2024/04/09 09:53:33;;;;;;;6.90;1.42;;;;;;;16.94;82.88;100636.66;5449154;26;20381;-74
2024/04/09 09:55:59;;;;;;;8.05;1.17;;;;;;;17.09;87.49;100651.31;5441202;26;20010;-74
2024/04/09 09:58:27;;;;;;;5.78;1.15;;;;;;;17.24;85.02;100658.34;5410983;26;20018;-74
2024/04/09 10:00:52;;;;;;;7.50;1.50;;;;;;;17.31;82.75;100676.31;5441897;26;20022;-74
2024/04/09 10:03:18;;;;;;;8.68;1.25;;;;;;;17.41;77.14;100675.97;5403505;26;20070;-74
2024/04/09 10:05:45;;;;;;;6.40;0.98;;;;;;;17.53;76.95;100666.81;5428339;26;20010;-74
2024/04/09 10:08:21;;;;;;;8.48;1.13;;;;;;;17.58;73.88;100668.63;5446775;26;19999;-74
2024/04/09 10:10:52;;;;;;;6.03;1.02;;;;;;;17.53;73.00;100664.03;5398616;26;20006;-74
2024/04/09 10:13:23;;;;;;;6.80;1.10;;;;;;;17.54;70.73;100674.09;5461529;26;20050;-74
2024/04/09 10:15:49;;;;;;;7.85;1.30;;;;;;;17.60;69.77;100674.72;5460397;26;20026;-74
2024/04/09 10:18:34;;;;;;;6.07;1.42;;;;;;;17.55;70.06;100674.91;5489142;26;20005;-74
2024/04/09 10:21:03;;;;;;;8.25;1.40;;;;;;;17.54;71.09;100676.88;5486329;26;20010;-74
2024/04/09 10:23:28;;;;;;;10.30;1.08;;;;;;;17.61;72.96;100679.19;5418429;26;20009;-74
2024/04/09 10:25:57;;;;;;;7.25;1.42;;;;;;;17.63;76.90;100674.88;5519248;26;20014;-74
2024/04/09 10:28:30;;;;;;;7.75;1.30;;;;;;;17.67;74.53;100693.88;5432674;26;20438;-74
2024/04/09 10:31:02;;;;;;;9.75;1.63;;;;;;;17.70;72.59;100705.25;5474342;26;20081;-74
2024/04/09 10:33:33;;;;;;;9.65;1.40;;;;;;;17.73;69.99;100707.38;5524921;26;20001;-74
2024/04/09 10:35:58;;;;;;;5.93;0.93;;;;;;;17.78;68.73;100703.56;5456209;26;19998;-74
2024/04/09 10:38:24;;;;;;;8.73;1.40;;;;;;;17.83;76.28;100721.06;5476403;26;20460;-74
2024/04/09 10:40:50;;;;;;;9.93;1.55;;;;;;;17.76;71.92;100714.31;5483910;26;20018;-74
2024/04/09 10:43:15;;;;;;;6.55;1.40;;;;;;;17.78;72.45;100720.41;5525020;26;20037;-74
2024/04/09 10:45:41;;;;;;;9.52;1.52;;;;;;;17.72;71.06;100736.63;5495328;26;19998;-74
2024/04/09 10:48:07;;;;;;;7.43;1.45;;;;;;;17.58;69.70;100722.00;5497773;26;20017;-74
2024/04/09 10:50:34;;;;;;;8.50;1.80;;;;;;;17.47;67.47;100726.28;5428524;26;20014;-74
2024/04/09 10:52:59;;;;;;;7.22;1.38;;;;;;;17.35;69.23;100732.63;5480907;26;20474;-74
2024/04/09 10:55:25;;;;;;;7.45;1.38;;;;;;;17.28;69.17;100727.53;5472375;26;20030;-74
2024/04/09 10:57:51;;;;;;;9.35;1.38;;;;;;;17.31;67.23;100717.63;5445424;26;19999;-74
2024/04/09 11:00:17;;;;;;;5.25;1.08;;;;;;;17.25;65.78;100724.56;5449226;26;19994;-74
2024/04/09 11:02:44;;;;;;;6.20;1.17;;;;;;;17.39;65.94;100722.38;5436889;26;20001;-74
2024/04/09 11:05:10;;;;;;;7.38;1.13;;;;;;;17.52;69.64;100726.94;5469665;26;19998;-74
2024/04/09 11:07:39;;;;;;;5.22;1.10;;;;;;;17.64;68.91;100713.03;5479918;26;19999;-74
2024/04/09 11:10:16;;;;;;;8.43;1.20;;;;;;;17.72;64.41;100727.34;5477062;26;20020;-74
2024/04/09 11:12:46;;;;;;;6.78;1.60;;;;;;;17.89;66.78;100738.56;5432132;26;20067;-74
2024/04/09 11:15:12;;;;;;;12.15;1.40;;;;;;;17.95;66.75;100747.63;5467634;26;20008;-74
2024/04/09 11:17:38;;;;;;;8.27;1.55;;;;;;;17.98;67.50;100781.50;5497024;26;20434;-74